Pagina principale
METAR-TAF:

METAR-TAF

Aeroporti :

Aeroporto di Roma-Ciampino

Roma Ciampino, Italia

latitudine: 41-47N, longitudine: 012-35E, altezza: 129 m

Osservazione

Il bollettino è stato emesso 30 minuti fa, alle 03:50 UTC
Vento 4 kt da est/nord-est, variando fra nord/nord-est e est
Temperature 8°C
Umidità 100%
Pressione 1023 hPa
Visibilità: 1100 m
Cielo coperto ad un'altezza di 300 ft
foschia

METAR: LIRA 270350Z 07004KT 020V100 1100 R15/P1500N BR OVC003 08/08 Q1023

Ora: 05:20 (04:20 UTC)

Previsione

Il bollettino è stato emesso 5 ore e 20 minuti fa, alle 23:00 UTC
Previsione valida dal 27 alle 00 UTC al 27 alle 24 UTC
Vento 4 kt da direzioni variabili
Visibilità: 3000 m
foschia
Temporaneamente
dal 27 alle 00 UTC al 27 alle 06 UTC
Visibilità: 0600 m
Nuvoloso ad un'altezza di 200 ft
nebbia
Evoluzione graduale
dal 27 alle 08 UTC al 27 alle 10 UTC
Visibilità: 8000 m

TAF: LIRA 262300Z 2700/2724 VRB04KT 3000 BR NSC TEMPO 2700/2706 0600 FG BKN002 BECMG 2708/2710 8000

Osservazioni e previsioni meteorologiche di più di 4000 aeroporti (messaggi METAR e TAF).

Le stazioni disponibili sono rappresentate dai dischi gialli e rossi sulla carta.

Puntare il mouse per vedere il nome della stazione.

Clicca sopra per visualizzare le osservazioni e previsioni meteorologiche.

Per cambiare la mappa : fare clic sui pulsanti verdi con una croce nera per ingrandire, il pulsante verde con un trattino per diminuire, o sulla freccia verde per le mappe adiacenti.


METAR-TAF: